createdAt,value
2019-03-05T00:01:08.603Z,3.40
2019-03-05T00:03:37.412Z,3.57
2019-03-05T00:06:05.980Z,3.77
2019-03-05T00:08:34.568Z,3.33
2019-03-05T00:11:03.193Z,3.33
2019-03-05T00:13:31.755Z,3.30
2019-03-05T00:16:00.300Z,3.60
2019-03-05T00:18:28.999Z,3.40
2019-03-05T00:20:57.615Z,3.60
2019-03-05T00:23:35.304Z,4.00
2019-03-05T00:26:03.955Z,3.93
2019-03-05T00:28:53.699Z,3.37
2019-03-05T00:31:33.933Z,3.40
2019-03-05T00:34:05.564Z,3.73
2019-03-05T00:36:37.215Z,3.07
2019-03-05T00:39:12.001Z,3.30
2019-03-05T00:41:49.863Z,3.10
2019-03-05T00:44:33.379Z,3.10
2019-03-05T00:47:14.076Z,3.00
2019-03-05T00:50:06.552Z,3.13
2019-03-05T00:52:38.174Z,2.87
2019-03-05T00:55:12.645Z,2.67
2019-03-05T00:57:52.995Z,2.83
2019-03-05T01:00:42.245Z,2.70
2019-03-05T01:03:33.436Z,2.77
2019-03-05T01:06:23.275Z,3.00
2019-03-05T01:08:53.384Z,2.60
2019-03-05T01:11:22.536Z,3.13
2019-03-05T01:13:51.149Z,3.00
2019-03-05T01:16:21.499Z,3.10
2019-03-05T01:18:50.179Z,2.70
2019-03-05T01:21:18.823Z,3.10
2019-03-05T01:23:47.454Z,2.90
2019-03-05T01:26:16.081Z,3.20
2019-03-05T01:28:44.767Z,2.90
2019-03-05T01:31:31.078Z,3.00
2019-03-05T01:34:01.270Z,2.90
2019-03-05T01:36:34.557Z,3.03
2019-03-05T01:39:04.880Z,4.10
2019-03-05T01:41:33.444Z,2.90
2019-03-05T01:44:02.068Z,2.70
2019-03-05T01:46:30.639Z,3.17
2019-03-05T01:48:59.196Z,2.70
2019-03-05T01:51:27.759Z,3.60
2019-03-05T01:53:56.308Z,2.80
2019-03-05T01:56:24.948Z,3.10
2019-03-05T01:58:53.499Z,3.13
2019-03-05T02:01:22.069Z,2.73
2019-03-05T02:03:50.615Z,3.20
2019-03-05T02:06:20.144Z,3.57
2019-03-05T02:08:48.759Z,3.17
2019-03-05T02:11:17.472Z,2.73
2019-03-05T02:13:46.016Z,3.00
2019-03-05T02:16:14.666Z,3.53
2019-03-05T02:18:43.133Z,2.70
2019-03-05T02:21:11.763Z,3.40
2019-03-05T02:23:58.293Z,2.97
2019-03-05T02:26:52.727Z,2.70
2019-03-05T02:29:39.143Z,2.83
2019-03-05T02:32:27.364Z,3.13
2019-03-05T02:35:10.786Z,2.70
2019-03-05T02:37:42.432Z,3.17
2019-03-05T02:40:20.133Z,3.10
2019-03-05T02:42:51.784Z,2.70
2019-03-05T02:45:34.791Z,3.20
2019-03-05T02:48:18.507Z,3.00
2019-03-05T02:50:55.921Z,3.07
2019-03-05T02:53:35.851Z,3.40
2019-03-05T02:56:19.424Z,3.07
2019-03-05T02:58:46.842Z,2.70
2019-03-05T03:01:33.172Z,3.43
2019-03-05T03:04:09.216Z,3.43
2019-03-05T03:06:38.510Z,3.20
2019-03-05T03:09:28.328Z,3.17
2019-03-05T03:11:56.901Z,3.30
2019-03-05T03:14:25.480Z,3.10
2019-03-05T03:16:54.029Z,3.20
2019-03-05T03:19:22.603Z,3.30
2019-03-05T03:21:51.140Z,3.23
2019-03-05T03:24:19.775Z,3.33
2019-03-05T03:26:48.305Z,3.67
2019-03-05T03:29:16.922Z,3.47
2019-03-05T03:31:45.420Z,3.37
2019-03-05T03:34:13.982Z,3.20
2019-03-05T03:36:42.535Z,2.80
2019-03-05T03:39:11.104Z,3.30
2019-03-05T03:41:39.642Z,2.93
2019-03-05T03:44:08.159Z,3.60
2019-03-05T03:46:36.699Z,3.20
2019-03-05T03:49:05.262Z,3.20
2019-03-05T03:51:33.811Z,3.10
2019-03-05T03:54:02.370Z,3.70
2019-03-05T03:56:30.984Z,3.57
2019-03-05T03:58:59.544Z,2.93
2019-03-05T04:01:28.164Z,3.00
2019-03-05T04:03:56.732Z,3.27
2019-03-05T04:06:25.612Z,3.27
2019-03-05T04:08:54.253Z,3.00
2019-03-05T04:11:22.792Z,3.13
2019-03-05T04:13:51.359Z,3.30
2019-03-05T04:16:19.917Z,3.30
2019-03-05T04:18:48.501Z,3.00
2019-03-05T04:21:19.919Z,3.07
2019-03-05T04:23:47.243Z,3.30
2019-03-05T04:26:15.787Z,2.87
2019-03-05T04:28:44.359Z,3.70
2019-03-05T04:31:12.904Z,3.53
2019-03-05T04:33:41.470Z,3.23
2019-03-05T04:36:10.005Z,2.97
2019-03-05T04:38:57.839Z,3.07
2019-03-05T04:41:26.395Z,3.27
2019-03-05T04:43:54.963Z,2.93
2019-03-05T04:46:33.938Z,2.73
2019-03-05T04:49:27.908Z,2.80
2019-03-05T04:51:58.103Z,2.80
2019-03-05T04:54:26.675Z,2.60
2019-03-05T04:56:55.224Z,3.37
2019-03-05T04:59:23.786Z,2.97
2019-03-05T05:01:52.331Z,3.20
2019-03-05T05:04:20.891Z,2.47
2019-03-05T05:06:49.429Z,3.30
2019-03-05T05:09:18.001Z,3.90
2019-03-05T05:11:46.539Z,3.00
2019-03-05T05:14:15.108Z,3.20
2019-03-05T05:16:43.662Z,4.03
2019-03-05T05:19:12.226Z,2.90
2019-03-05T05:21:40.770Z,2.90
2019-03-05T05:24:09.340Z,3.27
2019-03-05T05:26:37.887Z,3.23
2019-03-05T05:29:06.464Z,3.20
2019-03-05T05:31:35.071Z,3.97
2019-03-05T05:34:03.622Z,3.00
2019-03-05T05:36:32.206Z,3.43
2019-03-05T05:39:00.748Z,4.03
2019-03-05T05:41:29.315Z,2.80
2019-03-05T05:43:57.856Z,3.60
2019-03-05T05:46:26.420Z,3.33
2019-03-05T05:48:54.962Z,3.20
2019-03-05T05:51:23.535Z,3.70
2019-03-05T05:53:52.088Z,2.80
2019-03-05T05:56:20.650Z,3.07
2019-03-05T05:58:49.195Z,3.50
2019-03-05T06:01:17.832Z,3.13
2019-03-05T06:03:46.458Z,3.50
2019-03-05T06:06:15.041Z,4.10
2019-03-05T06:08:43.585Z,2.90
2019-03-05T06:11:12.147Z,2.90
2019-03-05T06:13:40.712Z,3.20
2019-03-05T06:16:09.284Z,3.60
2019-03-05T06:18:37.832Z,3.23
2019-03-05T06:21:06.403Z,4.07
2019-03-05T06:23:34.952Z,3.57
2019-03-05T06:26:03.563Z,3.30
2019-03-05T06:28:32.076Z,3.90
2019-03-05T06:31:00.653Z,3.60
2019-03-05T06:33:29.203Z,3.40
2019-03-05T06:35:57.766Z,3.40
2019-03-05T06:38:26.315Z,3.50
2019-03-05T06:40:54.888Z,3.40
2019-03-05T06:43:23.428Z,3.70
2019-03-05T06:45:52.000Z,3.27
2019-03-05T06:48:20.559Z,3.23
2019-03-05T06:50:49.131Z,3.90
2019-03-05T06:53:17.671Z,4.20
2019-03-05T06:55:46.227Z,3.77
2019-03-05T06:58:14.789Z,5.10
2019-03-05T07:00:43.337Z,3.30
2019-03-05T07:03:13.267Z,4.57
2019-03-05T07:06:18.137Z,4.33
2019-03-05T07:09:07.732Z,4.03
2019-03-05T07:11:42.388Z,3.87
2019-03-05T07:14:16.879Z,3.50
2019-03-05T07:17:03.721Z,3.20
2019-03-05T07:19:35.330Z,3.50
2019-03-05T07:22:09.558Z,3.27
2019-03-05T07:24:47.968Z,3.57
2019-03-05T07:27:19.453Z,3.47
2019-03-05T07:29:48.073Z,3.17
2019-03-05T07:32:16.642Z,3.77
2019-03-05T07:34:46.911Z,3.33
2019-03-05T07:37:15.572Z,3.80
2019-03-05T07:39:44.248Z,3.73
2019-03-05T07:42:12.875Z,3.47
2019-03-05T07:44:41.448Z,3.40
2019-03-05T07:47:10.089Z,2.80
2019-03-05T07:49:43.631Z,3.60
2019-03-05T07:52:08.880Z,3.00
2019-03-05T07:54:37.411Z,3.70
2019-03-05T07:57:06.036Z,3.50
2019-03-05T07:59:34.599Z,3.70
2019-03-05T08:02:03.383Z,3.70
2019-03-05T08:04:31.941Z,3.60
2019-03-05T08:07:00.492Z,3.20
2019-03-05T08:09:30.757Z,3.77
2019-03-05T08:12:11.312Z,3.37
2019-03-05T08:14:51.959Z,3.83
2019-03-05T08:17:21.142Z,3.37
2019-03-05T08:19:49.713Z,3.73
2019-03-05T08:22:18.330Z,3.03
2019-03-05T08:24:46.963Z,3.40
2019-03-05T08:27:15.813Z,3.10
2019-03-05T08:29:44.551Z,3.40
2019-03-05T08:32:13.232Z,3.30
2019-03-05T08:34:41.795Z,3.23
2019-03-05T08:37:13.222Z,3.33
2019-03-05T08:39:40.618Z,3.50
2019-03-05T08:42:09.241Z,2.80
2019-03-05T08:44:37.875Z,3.20
2019-03-05T08:47:06.487Z,3.20
2019-03-05T08:49:35.050Z,3.63
2019-03-05T08:52:03.898Z,3.40
2019-03-05T08:54:32.491Z,3.00
2019-03-05T08:57:01.862Z,3.10
2019-03-05T08:59:32.572Z,3.33
2019-03-05T09:02:00.601Z,2.93
2019-03-05T09:04:29.166Z,2.83
2019-03-05T09:06:57.708Z,3.10
2019-03-05T09:09:26.270Z,2.73
2019-03-05T09:11:55.299Z,3.20
2019-03-05T09:14:23.876Z,2.90
2019-03-05T09:16:52.424Z,3.17
2019-03-05T09:19:21.060Z,3.07
2019-03-05T09:21:50.360Z,3.43
2019-03-05T09:24:18.922Z,3.30
2019-03-05T09:26:51.272Z,3.37
2019-03-05T09:29:17.874Z,3.10
2019-03-05T09:31:46.419Z,3.33
2019-03-05T09:34:14.982Z,3.33
2019-03-05T09:36:50.763Z,3.03
2019-03-05T09:39:14.241Z,2.70
2019-03-05T09:41:42.774Z,2.80
2019-03-05T09:44:11.350Z,3.10
2019-03-05T09:46:39.892Z,3.07
2019-03-05T09:49:08.458Z,3.00
2019-03-05T09:51:36.994Z,3.20
2019-03-05T09:54:06.165Z,3.13
2019-03-05T09:56:34.711Z,3.53
2019-03-05T09:59:05.390Z,3.03
2019-03-05T10:01:34.138Z,4.30
2019-03-05T10:04:02.784Z,3.23
2019-03-05T10:06:31.415Z,3.40
2019-03-05T10:09:00.519Z,3.97
2019-03-05T10:11:29.050Z,3.73
2019-03-05T10:13:57.586Z,3.50
2019-03-05T10:16:26.320Z,3.00
2019-03-05T10:18:54.823Z,3.20
2019-03-05T10:21:46.292Z,3.67
2019-03-05T10:27:00.904Z,3.53
2019-03-05T10:29:29.552Z,3.10
2019-03-05T10:31:58.170Z,3.43
2019-03-05T10:34:26.762Z,3.07
2019-03-05T10:36:55.374Z,2.93
2019-03-05T10:39:30.522Z,2.80
2019-03-05T10:41:56.315Z,3.30
2019-03-05T10:44:24.865Z,2.70
2019-03-05T10:46:55.947Z,2.87
2019-03-05T10:49:23.774Z,3.27
2019-03-05T10:51:52.544Z,3.07
2019-03-05T10:54:21.240Z,3.00
2019-03-05T10:56:49.891Z,2.87
2019-03-05T10:59:18.618Z,3.07
2019-03-05T11:01:48.582Z,3.17
2019-03-05T11:04:17.323Z,2.90
2019-03-05T11:06:46.060Z,3.20
2019-03-05T11:09:17.229Z,2.83
2019-03-05T11:11:45.905Z,3.13
2019-03-05T11:14:14.596Z,2.70
2019-03-05T11:16:43.301Z,2.90
2019-03-05T11:19:12.107Z,2.77
2019-03-05T11:21:40.741Z,3.00
2019-03-05T11:24:09.494Z,3.10
2019-03-05T11:26:38.139Z,3.00
2019-03-05T11:29:06.714Z,3.23
2019-03-05T11:31:35.394Z,2.70
2019-03-05T11:34:04.095Z,2.90
2019-03-05T11:36:32.737Z,2.87
2019-03-05T11:39:01.295Z,2.80
2019-03-05T11:41:30.293Z,3.20
2019-03-05T11:43:58.902Z,3.50
2019-03-05T11:46:28.011Z,2.90
2019-03-05T11:48:56.835Z,3.00
2019-03-05T11:51:25.399Z,3.20
2019-03-05T11:53:53.963Z,2.90
2019-03-05T11:56:22.536Z,3.00
2019-03-05T11:58:51.083Z,4.30
2019-03-05T12:01:21.287Z,3.13
2019-03-05T12:03:49.828Z,3.13
2019-03-05T12:06:18.535Z,3.80
2019-03-05T12:08:47.066Z,3.10
2019-03-05T12:11:15.703Z,3.13
2019-03-05T12:13:44.283Z,4.47
2019-03-05T12:16:13.364Z,3.13
2019-03-05T12:18:41.977Z,4.10
2019-03-05T12:21:10.677Z,3.70
2019-03-05T12:23:39.440Z,3.63
2019-03-05T12:26:08.136Z,3.37
2019-03-05T12:28:36.771Z,3.50
2019-03-05T12:31:05.759Z,3.03
2019-03-05T12:33:34.327Z,3.10
2019-03-05T12:36:02.878Z,3.60
2019-03-05T12:38:31.507Z,3.30
2019-03-05T12:41:00.139Z,3.67
2019-03-05T12:43:28.886Z,3.20
2019-03-05T12:45:57.425Z,3.17
2019-03-05T12:48:26.055Z,3.63
2019-03-05T12:50:54.735Z,5.77
2019-03-05T12:53:23.442Z,3.73
2019-03-05T12:55:52.016Z,3.83
2019-03-05T12:58:20.672Z,3.43
2019-03-05T13:00:49.362Z,5.30
2019-03-05T13:03:17.923Z,5.63
2019-03-05T13:05:46.534Z,3.43
2019-03-05T13:08:15.170Z,3.90
2019-03-05T13:10:45.186Z,5.07
2019-03-05T13:13:15.284Z,4.47
2019-03-05T13:15:44.263Z,7.53
2019-03-05T13:18:14.272Z,3.47
2019-03-05T13:20:43.091Z,5.70
2019-03-05T13:23:11.667Z,3.10
2019-03-05T13:25:40.271Z,3.53
2019-03-05T13:28:08.980Z,4.83
2019-03-05T13:30:40.191Z,3.67
2019-03-05T13:33:07.871Z,3.33
2019-03-05T13:35:36.406Z,5.27
2019-03-05T13:38:12.294Z,3.80
2019-03-05T13:40:40.971Z,3.43
2019-03-05T13:43:09.646Z,3.30
2019-03-05T13:45:42.229Z,3.23
2019-03-05T13:48:23.558Z,4.40
2019-03-05T13:51:10.480Z,3.10
2019-03-05T13:54:00.998Z,3.20
2019-03-05T13:56:42.258Z,3.47
2019-03-05T13:59:31.322Z,3.10
2019-03-05T14:01:59.895Z,3.30
2019-03-05T14:04:46.362Z,3.30
2019-03-05T14:07:26.695Z,3.30
2019-03-05T14:09:55.413Z,4.13
2019-03-05T14:12:23.966Z,3.40
2019-03-05T14:15:12.120Z,4.77
2019-03-05T14:17:41.910Z,6.07
2019-03-05T14:20:13.717Z,6.17
2019-03-05T14:22:42.368Z,4.87
2019-03-05T14:25:14.060Z,3.70
2019-03-05T14:27:42.828Z,3.30
2019-03-05T14:30:17.116Z,4.10
2019-03-05T14:32:45.715Z,5.50
2019-03-05T14:35:15.513Z,3.50
2019-03-05T14:37:44.390Z,3.40
2019-03-05T14:40:24.640Z,3.27
2019-03-05T14:42:51.970Z,4.00
2019-03-05T14:45:23.807Z,3.23
2019-03-05T14:47:53.710Z,3.60
2019-03-05T14:50:22.378Z,4.00
2019-03-05T14:52:50.979Z,4.00
2019-03-05T14:55:19.710Z,3.40
2019-03-05T14:57:48.395Z,4.13
2019-03-05T15:00:19.995Z,2.90
2019-03-05T15:02:48.565Z,3.90
2019-03-05T15:05:17.273Z,3.37
2019-03-05T15:07:45.950Z,4.63
2019-03-05T15:10:14.692Z,3.23
2019-03-05T15:12:43.530Z,3.53
2019-03-05T15:15:20.880Z,4.03
2019-03-05T15:17:50.074Z,4.00
2019-03-05T15:20:18.772Z,5.67
2019-03-05T15:22:47.427Z,5.10
2019-03-05T15:25:17.250Z,4.67
2019-03-05T15:27:46.063Z,4.00
2019-03-05T15:30:19.878Z,4.60
2019-03-05T15:32:48.595Z,6.03
2019-03-05T15:35:17.425Z,4.53
2019-03-05T15:37:45.979Z,4.50
2019-03-05T15:40:16.478Z,4.30
2019-03-05T15:42:45.213Z,4.40
2019-03-05T15:45:20.653Z,3.40
2019-03-05T15:47:49.230Z,3.50
2019-03-05T15:50:28.716Z,3.57
2019-03-05T15:52:57.451Z,3.73
2019-03-05T15:55:26.653Z,3.43
2019-03-05T15:57:55.185Z,3.87
2019-03-05T16:00:30.127Z,4.10
2019-03-05T16:02:59.234Z,4.30
2019-03-05T16:05:28.540Z,4.13
2019-03-05T16:07:57.090Z,3.90
2019-03-05T16:10:25.807Z,3.67
2019-03-05T16:12:54.439Z,4.13
2019-03-05T16:15:23.170Z,3.80
2019-03-05T16:17:51.797Z,3.93
2019-03-05T16:20:20.830Z,3.80
2019-03-05T16:22:51.206Z,2.83
2019-03-05T16:25:22.287Z,4.43
2019-03-05T16:27:51.162Z,4.13
2019-03-05T16:30:43.461Z,4.63
2019-03-05T16:33:13.789Z,6.13
2019-03-05T16:35:51.916Z,4.33
2019-03-05T16:38:24.236Z,4.47
2019-03-05T16:40:54.438Z,4.57
2019-03-05T16:43:39.934Z,4.27
2019-03-05T16:46:22.760Z,3.90
2019-03-05T16:48:52.946Z,3.60
2019-03-05T16:51:26.626Z,3.43
2019-03-05T16:53:56.973Z,4.07
2019-03-05T16:56:30.152Z,4.67
2019-03-05T16:59:00.581Z,4.40
2019-03-05T17:01:36.623Z,5.10
2019-03-05T17:04:18.779Z,6.43
2019-03-05T17:06:48.986Z,5.33
2019-03-05T17:09:25.011Z,3.70
2019-03-05T17:12:02.433Z,2.70
2019-03-05T17:14:31.065Z,2.90
2019-03-05T17:16:59.675Z,3.50
2019-03-05T17:19:28.230Z,3.23
2019-03-05T17:21:56.810Z,3.87
2019-03-05T17:24:25.714Z,3.83
2019-03-05T17:26:54.352Z,3.40
2019-03-05T17:29:23.031Z,3.80
2019-03-05T17:31:51.659Z,3.50
2019-03-05T17:34:20.203Z,3.00
2019-03-05T17:36:48.758Z,3.30
2019-03-05T17:39:19.324Z,3.37
2019-03-05T17:41:48.091Z,3.00
2019-03-05T17:44:16.739Z,3.40
2019-03-05T17:46:45.642Z,3.50
2019-03-05T17:49:14.290Z,2.90
2019-03-05T17:51:42.818Z,3.40
2019-03-05T17:54:11.665Z,3.20
2019-03-05T17:56:40.287Z,3.40
2019-03-05T17:59:09.106Z,3.87
2019-03-05T18:01:37.755Z,4.77
2019-03-05T18:04:06.351Z,7.27
2019-03-05T18:06:34.912Z,6.67
2019-03-05T18:09:04.714Z,8.67
2019-03-05T18:11:33.499Z,5.17
2019-03-05T18:14:02.143Z,4.20
2019-03-05T18:16:30.752Z,4.77
2019-03-05T18:18:59.331Z,4.87
2019-03-05T18:21:28.104Z,5.57
2019-03-05T18:23:56.975Z,5.43
2019-03-05T18:26:25.520Z,6.23
2019-03-05T18:28:54.082Z,4.33
2019-03-05T18:31:22.618Z,4.90
2019-03-05T18:33:51.195Z,4.73
2019-03-05T18:36:20.083Z,4.30
2019-03-05T18:38:48.653Z,4.07
2019-03-05T18:41:17.252Z,4.33
2019-03-05T18:43:45.819Z,3.70
2019-03-05T18:46:14.375Z,4.20
2019-03-05T18:48:43.323Z,4.27
2019-03-05T18:51:11.863Z,3.73
2019-03-05T18:53:40.426Z,4.10
2019-03-05T18:56:09.110Z,4.33
2019-03-05T18:58:37.917Z,4.13
2019-03-05T19:01:09.642Z,4.20
2019-03-05T19:03:38.101Z,4.07
2019-03-05T19:06:06.694Z,3.50
2019-03-05T19:08:35.250Z,3.40
2019-03-05T19:11:04.136Z,4.17
2019-03-05T19:13:32.963Z,4.07
2019-03-05T19:16:02.051Z,3.23
2019-03-05T19:18:30.589Z,3.30
2019-03-05T19:20:59.313Z,3.40
2019-03-05T19:23:27.867Z,4.47
2019-03-05T19:25:56.714Z,4.10
2019-03-05T19:28:25.599Z,3.80
2019-03-05T19:30:54.219Z,3.67
2019-03-05T19:33:22.759Z,3.30
2019-03-05T19:35:51.392Z,3.67
2019-03-05T19:38:20.240Z,3.17
2019-03-05T19:40:49.316Z,3.67
2019-03-05T19:43:17.938Z,4.40
2019-03-05T19:45:46.527Z,3.80
2019-03-05T19:48:15.263Z,3.43
2019-03-05T19:50:44.196Z,3.73
2019-03-05T19:53:12.739Z,3.60
2019-03-05T19:55:41.460Z,3.50
2019-03-05T19:58:12.072Z,3.63
2019-03-05T20:00:47.764Z,3.33
2019-03-05T20:03:16.263Z,3.27
2019-03-05T20:06:05.709Z,4.07
2019-03-05T20:08:39.949Z,2.90
2019-03-05T20:11:05.425Z,3.70
2019-03-05T20:13:34.199Z,3.67
2019-03-05T20:16:03.407Z,3.70
2019-03-05T20:18:32.009Z,3.70
2019-03-05T20:21:00.675Z,3.50
2019-03-05T20:23:29.183Z,3.80
2019-03-05T20:25:57.895Z,4.07
2019-03-05T20:28:26.435Z,3.90
2019-03-05T20:30:55.011Z,4.20
2019-03-05T20:33:23.578Z,3.37
2019-03-05T20:35:52.159Z,4.60
2019-03-05T20:38:20.783Z,3.63
2019-03-05T20:40:52.430Z,4.37
2019-03-05T20:43:21.091Z,3.50
2019-03-05T20:45:52.439Z,3.73
2019-03-05T20:48:21.015Z,3.33
2019-03-05T20:50:49.610Z,4.03
2019-03-05T20:53:18.354Z,3.87
2019-03-05T20:55:47.074Z,3.27
2019-03-05T20:58:15.674Z,3.27
2019-03-05T21:00:44.446Z,3.03
2019-03-05T21:03:13.522Z,3.30
2019-03-05T21:05:48.990Z,3.30
2019-03-05T21:08:17.609Z,3.37
2019-03-05T21:10:46.432Z,3.60
2019-03-05T21:13:15.116Z,3.90
2019-03-05T21:15:43.818Z,3.87
2019-03-05T21:18:19.330Z,3.73
2019-03-05T21:20:47.735Z,4.10
2019-03-05T21:23:16.749Z,3.60
2019-03-05T21:25:45.414Z,4.53
2019-03-05T21:28:14.080Z,4.10
2019-03-05T21:30:42.815Z,3.80
2019-03-05T21:33:11.406Z,4.00
2019-03-05T21:35:40.360Z,4.00
2019-03-05T21:38:09.144Z,3.80
2019-03-05T21:40:38.019Z,3.83
2019-03-05T21:43:06.730Z,4.00
2019-03-05T21:45:53.223Z,3.77
2019-03-05T21:48:21.952Z,4.13
2019-03-05T21:50:50.512Z,3.83
2019-03-05T21:53:19.151Z,3.70
2019-03-05T21:55:47.699Z,4.27
2019-03-05T21:58:16.354Z,3.90
2019-03-05T22:00:44.998Z,3.97
2019-03-05T22:03:13.628Z,4.37
2019-03-05T22:05:42.244Z,3.90
2019-03-05T22:08:10.811Z,3.90
2019-03-05T22:10:39.343Z,3.67
2019-03-05T22:13:07.911Z,4.40
2019-03-05T22:15:38.016Z,3.60
2019-03-05T22:18:06.644Z,3.90
2019-03-05T22:20:35.279Z,4.13
2019-03-05T22:23:03.941Z,4.20
2019-03-05T22:25:32.527Z,3.83
2019-03-05T22:28:01.156Z,3.80
2019-03-05T22:30:31.931Z,3.80
2019-03-05T22:33:00.649Z,3.50
2019-03-05T22:35:29.771Z,3.80
2019-03-05T22:37:58.447Z,3.47
2019-03-05T22:40:28.035Z,3.70
2019-03-05T22:42:56.844Z,3.97
2019-03-05T22:45:29.943Z,3.67
2019-03-05T22:47:59.033Z,3.67
2019-03-05T22:50:27.778Z,3.77
2019-03-05T22:52:56.586Z,3.80
2019-03-05T22:55:25.326Z,3.83
2019-03-05T22:57:54.191Z,4.20
2019-03-05T23:00:50.280Z,3.87
2019-03-05T23:03:27.064Z,4.67
2019-03-05T23:05:55.619Z,5.03
2019-03-05T23:08:24.188Z,5.50
2019-03-05T23:10:53.114Z,5.20
2019-03-05T23:13:22.052Z,5.07
2019-03-05T23:15:50.827Z,4.67
2019-03-05T23:18:20.829Z,4.63
2019-03-05T23:20:49.689Z,3.90
2019-03-05T23:23:19.717Z,4.40
2019-03-05T23:25:48.335Z,4.67
2019-03-05T23:28:17.014Z,4.23
2019-03-05T23:30:45.931Z,3.97
2019-03-05T23:33:14.829Z,4.00
2019-03-05T23:35:44.032Z,3.80
2019-03-05T23:38:12.722Z,4.00
2019-03-05T23:40:41.359Z,4.17
2019-03-05T23:43:10.142Z,5.27
2019-03-05T23:45:38.711Z,5.30
2019-03-05T23:48:07.466Z,4.50
2019-03-05T23:50:36.053Z,4.37
2019-03-05T23:53:04.655Z,5.40
2019-03-05T23:55:33.230Z,5.30
2019-03-05T23:58:01.975Z,4.87
